createdAt,value
2023-04-02T00:00:09.955Z,0.6
2023-04-02T00:01:26.904Z,0.64
2023-04-02T00:02:44.005Z,0.7
2023-04-02T00:04:01.021Z,0.59
2023-04-02T00:05:17.987Z,0.78
2023-04-02T00:06:35.011Z,0.93
2023-04-02T00:07:51.926Z,0.73
2023-04-02T00:09:08.901Z,0.56
2023-04-02T00:10:25.918Z,0.4
2023-04-02T00:11:42.983Z,0.45
2023-04-02T00:12:59.907Z,0.44
2023-04-02T00:14:16.982Z,1.14
2023-04-02T00:15:34.214Z,0.75
2023-04-02T00:16:50.969Z,0.82
2023-04-02T00:18:08.043Z,0.75
2023-04-02T00:19:24.974Z,0.59
2023-04-02T00:20:41.957Z,1.18
2023-04-02T00:21:59.054Z,0.91
2023-04-02T00:23:16.031Z,0.8
2023-04-02T00:24:32.931Z,0.86
2023-04-02T00:25:49.973Z,0.61
2023-04-02T00:27:06.977Z,0.49
2023-04-02T00:28:23.941Z,0.69
2023-04-02T00:29:41.122Z,0.89
2023-04-02T00:30:58.462Z,0.51
2023-04-02T00:32:15.082Z,0.55
2023-04-02T00:33:31.949Z,0.46
2023-04-02T00:34:49.017Z,0.66
2023-04-02T00:36:06.009Z,0.72
2023-04-02T00:37:22.977Z,0.61
2023-04-02T00:38:39.951Z,0.65
2023-04-02T00:39:57.053Z,0.62
2023-04-02T00:41:13.987Z,0.64
2023-04-02T00:42:30.978Z,0.49
2023-04-02T00:43:47.993Z,0.71
2023-04-02T00:45:05.007Z,0.42
2023-04-02T00:46:22.135Z,0.47
2023-04-02T00:47:38.985Z,0.27
2023-04-02T00:48:55.967Z,0.42
2023-04-02T00:50:12.971Z,0.26
2023-04-02T00:51:30.036Z,0.41
2023-04-02T00:52:47.011Z,0.61
2023-04-02T00:54:03.976Z,0.95
2023-04-02T00:55:20.992Z,0.63
2023-04-02T00:56:38.067Z,0.34
2023-04-02T00:57:54.990Z,0.97
2023-04-02T00:59:12.010Z,0.98
2023-04-02T01:00:28.991Z,0.43
2023-04-02T01:01:46.138Z,0.39
2023-04-02T01:03:03.059Z,0.79
2023-04-02T01:04:19.995Z,0.45
2023-04-02T01:05:37.290Z,0.44
2023-04-02T01:06:54.018Z,0.38
2023-04-02T01:08:11.068Z,0.49
2023-04-02T01:09:28.232Z,0.64
2023-04-02T01:10:45.004Z,0.84
2023-04-02T01:12:01.995Z,0.53
2023-04-02T01:13:20.136Z,0.66
2023-04-02T01:14:37.058Z,0.67
2023-04-02T01:15:54.022Z,0.24
2023-04-02T01:17:11.013Z,0.51
2023-04-02T01:18:28.027Z,0.31
2023-04-02T01:19:45.081Z,0.44
2023-04-02T01:21:02.008Z,0.36
2023-04-02T01:22:19.011Z,0.47
2023-04-02T01:23:36.053Z,0.43
2023-04-02T01:24:53.039Z,0.76
2023-04-02T01:26:10.048Z,0.74
2023-04-02T01:27:27.024Z,0.4
2023-04-02T01:28:44.022Z,0.57
2023-04-02T01:30:01.092Z,0.7
2023-04-02T01:31:18.119Z,1.28
2023-04-02T01:32:35.064Z,0.98
2023-04-02T01:33:52.037Z,0.86
2023-04-02T01:35:09.029Z,0.63
2023-04-02T01:36:26.034Z,0.5
2023-04-02T01:37:43.166Z,0.66
2023-04-02T01:39:00.092Z,0.72
2023-04-02T01:40:17.074Z,0.47
2023-04-02T01:41:34.025Z,0.59
2023-04-02T01:42:51.051Z,0.5
2023-04-02T01:44:08.106Z,0.39
2023-04-02T01:45:25.045Z,0.5
2023-04-02T01:46:42.186Z,0.51
2023-04-02T01:47:59.145Z,0.54
2023-04-02T01:49:16.123Z,0.51
2023-04-02T01:50:33.141Z,0.32
2023-04-02T01:51:50.048Z,0.86
2023-04-02T01:53:07.139Z,1
2023-04-02T01:54:24.102Z,1.09
2023-04-02T01:55:41.061Z,0.65
2023-04-02T01:56:58.252Z,0.61
2023-04-02T01:58:15.086Z,0.3
2023-04-02T01:59:32.069Z,0.5
2023-04-02T02:00:49.104Z,1.11
2023-04-02T02:02:06.106Z,0.79
2023-04-02T02:03:23.121Z,0.87
2023-04-02T02:04:40.114Z,0.68
2023-04-02T02:05:57.092Z,0.45
2023-04-02T02:07:14.356Z,0.65
2023-04-02T02:08:31.138Z,0.72
2023-04-02T02:09:48.105Z,0.5
2023-04-02T02:11:05.075Z,0.85
2023-04-02T02:12:22.081Z,0.71
2023-04-02T02:13:40.411Z,0.51
2023-04-02T02:14:56.139Z,0.89
2023-04-02T02:16:13.096Z,0.56
2023-04-02T02:17:30.085Z,0.4
2023-04-02T02:18:47.091Z,0.27
2023-04-02T02:20:04.144Z,0.87
2023-04-02T02:21:21.088Z,0.67
2023-04-02T02:22:38.106Z,0.78
2023-04-02T02:23:55.098Z,0.72
2023-04-02T02:25:12.192Z,0.37
2023-04-02T02:26:29.151Z,0.47
2023-04-02T02:27:46.168Z,0.7
2023-04-02T02:29:03.155Z,1.2
2023-04-02T02:30:20.135Z,0.76
2023-04-02T02:31:37.136Z,0.67
2023-04-02T02:32:54.126Z,0.87
2023-04-02T02:34:11.133Z,0.73
2023-04-02T02:35:28.119Z,1.23
2023-04-02T02:36:45.096Z,1.17
2023-04-02T02:38:02.159Z,0.89
2023-04-02T02:39:19.224Z,1.09
2023-04-02T02:40:36.152Z,0.78
2023-04-02T02:41:53.127Z,0.74
2023-04-02T02:43:10.130Z,1.08
2023-04-02T02:44:27.310Z,1.06
2023-04-02T02:45:44.158Z,1.15
2023-04-02T02:47:01.135Z,1.01
2023-04-02T02:48:18.169Z,1.09
2023-04-02T02:49:35.185Z,0.75
2023-04-02T02:50:52.176Z,0.81
2023-04-02T02:52:09.150Z,0.86
2023-04-02T02:53:26.188Z,1
2023-04-02T02:54:43.222Z,0.99
2023-04-02T02:56:00.338Z,0.68
2023-04-02T02:57:17.161Z,0.88
2023-04-02T02:58:34.149Z,0.42
2023-04-02T02:59:51.184Z,0.56
2023-04-02T03:01:08.191Z,0.73
2023-04-02T03:02:25.230Z,0.56
2023-04-02T03:03:42.411Z,0.69
2023-04-02T03:04:59.183Z,0.55
2023-04-02T03:06:16.203Z,0.71
2023-04-02T03:07:33.186Z,1.29
2023-04-02T03:08:50.161Z,0.59
2023-04-02T03:10:07.246Z,1.24
2023-04-02T03:11:24.199Z,0.84
2023-04-02T03:12:41.177Z,0.36
2023-04-02T03:13:58.253Z,0.53
2023-04-02T03:15:15.179Z,0.42
2023-04-02T03:16:32.163Z,0.54
2023-04-02T03:17:49.174Z,0.37
2023-04-02T03:19:06.219Z,0.36
2023-04-02T03:20:23.224Z,0.99
2023-04-02T03:21:40.183Z,1.02
2023-04-02T03:22:57.235Z,0.63
2023-04-02T03:24:14.171Z,0.5
2023-04-02T03:25:31.239Z,1.18
2023-04-02T03:26:48.248Z,0.74
2023-04-02T03:28:05.166Z,1.28
2023-04-02T03:29:22.178Z,1.15
2023-04-02T03:30:39.315Z,1.22
2023-04-02T03:31:56.185Z,1.26
2023-04-02T03:33:13.233Z,0.76
2023-04-02T03:34:30.171Z,0.61
2023-04-02T03:35:47.208Z,0.79
2023-04-02T03:37:04.190Z,0.69
2023-04-02T03:38:21.197Z,0.58
2023-04-02T03:39:38.223Z,1.83
2023-04-02T03:40:55.260Z,1.72
2023-04-02T03:42:12.259Z,0.48
2023-04-02T03:43:29.210Z,0.83
2023-04-02T03:44:46.233Z,0.77
2023-04-02T03:46:03.299Z,0.9
2023-04-02T03:47:20.216Z,0.93
2023-04-02T03:48:37.213Z,0.68
2023-04-02T03:49:54.214Z,1.64
2023-04-02T03:51:11.286Z,1.24
2023-04-02T03:52:28.449Z,0.98
2023-04-02T03:53:45.225Z,1.55
2023-04-02T03:55:02.235Z,0.87
2023-04-02T03:56:19.257Z,0.4
2023-04-02T03:57:36.256Z,0.42
2023-04-02T03:58:53.247Z,1.4
2023-04-02T04:00:10.230Z,1.28
2023-04-02T04:01:27.310Z,1.04
2023-04-02T04:02:44.344Z,1.54
2023-04-02T04:04:01.488Z,0.88
2023-04-02T04:05:18.242Z,1.03
2023-04-02T04:06:35.241Z,1.75
2023-04-02T04:07:52.272Z,2.4
2023-04-02T04:09:09.327Z,1.18
2023-04-02T04:10:26.235Z,1.02
2023-04-02T04:11:43.233Z,1.93
2023-04-02T04:13:00.312Z,1.8
2023-04-02T04:14:17.268Z,1.25
2023-04-02T04:15:34.539Z,0.6
2023-04-02T04:16:51.361Z,0.7
2023-04-02T04:18:08.343Z,1.4
2023-04-02T04:19:25.279Z,1.17
2023-04-02T04:20:42.447Z,0.92
2023-04-02T04:21:59.311Z,1.14
2023-04-02T04:23:16.256Z,1.48
2023-04-02T04:24:33.263Z,1.25
2023-04-02T04:25:50.299Z,0.78
2023-04-02T04:27:07.332Z,0.26
2023-04-02T04:28:24.311Z,1.09
2023-04-02T04:29:41.255Z,0.82
2023-04-02T04:30:58.261Z,1.46
2023-04-02T04:32:15.410Z,0.84
2023-04-02T04:33:32.254Z,0.84
2023-04-02T04:34:49.275Z,0.72
2023-04-02T04:36:06.284Z,0.73
2023-04-02T04:37:23.315Z,0.77
2023-04-02T04:38:40.274Z,0.39
2023-04-02T04:39:57.310Z,0.96
2023-04-02T04:41:14.271Z,0.57
2023-04-02T04:42:31.300Z,0.21
2023-04-02T04:43:48.327Z,0.44
2023-04-02T04:45:05.304Z,0.66
2023-04-02T04:46:22.390Z,0.6
2023-04-02T04:47:39.329Z,0.66
2023-04-02T04:48:56.315Z,1.29
2023-04-02T04:50:13.284Z,0.8
2023-04-02T04:51:30.303Z,0.54
2023-04-02T04:52:47.299Z,0.97
2023-04-02T04:54:04.322Z,1.23
2023-04-02T04:55:21.378Z,0.69
2023-04-02T04:56:38.367Z,1.32
2023-04-02T04:57:55.328Z,0.41
2023-04-02T04:59:12.345Z,1.2
2023-04-02T05:00:29.303Z,0.71
2023-04-02T05:01:46.428Z,1.19
2023-04-02T05:03:03.967Z,1.67
2023-04-02T05:04:22.115Z,1.05
2023-04-02T05:05:39.256Z,2.15
2023-04-02T05:06:56.314Z,1.84
2023-04-02T05:08:13.366Z,1.47
2023-04-02T05:09:30.306Z,1.13
2023-04-02T05:10:47.337Z,0.92
2023-04-02T05:12:04.316Z,1.18
2023-04-02T05:13:21.456Z,0.91
2023-04-02T05:14:38.341Z,1.2
2023-04-02T05:15:55.372Z,0.77
2023-04-02T05:17:12.826Z,0.87
2023-04-02T05:18:29.341Z,1.02
2023-04-02T05:19:46.348Z,0.83
2023-04-02T05:21:03.315Z,1.75
2023-04-02T05:22:20.379Z,1.26
2023-04-02T05:23:37.367Z,1.01
2023-04-02T05:24:54.318Z,1.59
2023-04-02T05:26:11.340Z,1.14
2023-04-02T05:27:28.403Z,0.91
2023-04-02T05:28:45.364Z,0.52
2023-04-02T05:30:02.491Z,0.76
2023-04-02T05:31:19.374Z,1.46
2023-04-02T05:32:36.414Z,1.47
2023-04-02T05:33:53.350Z,2.33
2023-04-02T05:35:10.382Z,2.34
2023-04-02T05:36:27.403Z,1.22
2023-04-02T05:37:44.344Z,0.65
2023-04-02T05:39:01.378Z,0.85
2023-04-02T05:40:18.398Z,1.83
2023-04-02T05:41:35.357Z,0.66
2023-04-02T05:42:52.397Z,0.8
2023-04-02T05:44:09.388Z,0.41
2023-04-02T05:45:26.412Z,0.75
2023-04-02T05:46:43.449Z,0.82
2023-04-02T05:48:00.416Z,0.9
2023-04-02T05:49:17.390Z,2.1
2023-04-02T05:50:34.375Z,2.2
2023-04-02T05:51:51.370Z,1.1
2023-04-02T05:53:08.356Z,2.11
2023-04-02T05:54:25.428Z,1.81
2023-04-02T05:55:42.369Z,0.93
2023-04-02T05:56:59.407Z,1.72
2023-04-02T05:58:34.304Z,1.27
2023-04-02T05:59:33.402Z,1.05
2023-04-02T06:00:50.409Z,0.85
2023-04-02T06:02:08.017Z,1.36
2023-04-02T06:03:25.423Z,0.66
2023-04-02T06:04:43.112Z,0.73
2023-04-02T06:06:00.385Z,0.81
2023-04-02T06:07:17.464Z,1.48
2023-04-02T06:08:34.771Z,0.95
2023-04-02T06:09:51.453Z,2.05
2023-04-02T06:11:08.393Z,1.46
2023-04-02T06:12:25.425Z,1.61
2023-04-02T06:13:42.448Z,1.24
2023-04-02T06:14:59.397Z,1.64
2023-04-02T06:16:16.481Z,1.19
2023-04-02T06:17:33.410Z,0.93
2023-04-02T06:18:50.414Z,0.79
2023-04-02T06:20:07.433Z,0.92
2023-04-02T06:21:24.463Z,1.3
2023-04-02T06:22:42.367Z,1.52
2023-04-02T06:23:59.401Z,0.97
2023-04-02T06:25:16.452Z,1.19
2023-04-02T06:26:33.442Z,1.1
2023-04-02T06:27:50.416Z,1.51
2023-04-02T06:29:07.438Z,1.98
2023-04-02T06:30:24.434Z,0.94
2023-04-02T06:31:41.493Z,1.3
2023-04-02T06:32:58.502Z,0.64
2023-04-02T06:34:15.424Z,2.65
2023-04-02T06:35:32.428Z,1.3
2023-04-02T06:36:49.466Z,1.43
2023-04-02T06:38:06.471Z,1.14
2023-04-02T06:39:23.431Z,2.58
2023-04-02T06:40:40.432Z,2.29
2023-04-02T06:41:57.478Z,2.1
2023-04-02T06:43:14.464Z,1.8
2023-04-02T06:44:31.456Z,1.28
2023-04-02T06:45:48.494Z,2.09
2023-04-02T06:47:05.485Z,2.26
2023-04-02T06:48:22.517Z,2.59
2023-04-02T06:49:39.470Z,2.04
2023-04-02T06:50:56.446Z,1.64
2023-04-02T06:52:13.505Z,1.77
2023-04-02T06:53:30.446Z,1.13
2023-04-02T06:54:47.545Z,1.82
2023-04-02T06:56:04.455Z,1.44
2023-04-02T06:57:21.545Z,1.86
2023-04-02T06:58:38.469Z,1.87
2023-04-02T06:59:55.472Z,1.08
2023-04-02T07:01:12.550Z,1.75
2023-04-02T07:02:29.633Z,1.49
2023-04-02T07:03:46.487Z,0.54
2023-04-02T07:05:03.567Z,1.15
2023-04-02T07:06:20.494Z,2.36
2023-04-02T07:07:37.527Z,1.48
2023-04-02T07:08:55.512Z,2.05
2023-04-02T07:10:12.481Z,1.25
2023-04-02T07:11:29.481Z,1.79
2023-04-02T07:12:46.502Z,4.29
2023-04-02T07:14:03.564Z,4.15
2023-04-02T07:15:20.501Z,2.31
2023-04-02T07:16:37.534Z,2.19
2023-04-02T07:17:54.578Z,2.5
2023-04-02T07:19:11.553Z,1.71
2023-04-02T07:20:28.521Z,1.5
2023-04-02T07:21:45.627Z,1.93
2023-04-02T07:23:02.698Z,0.95
2023-04-02T07:24:19.491Z,1.67
2023-04-02T07:25:36.833Z,2.58
2023-04-02T07:26:53.551Z,2.94
2023-04-02T07:28:10.540Z,1.79
2023-04-02T07:29:27.536Z,1.65
2023-04-02T07:30:44.494Z,1.74
2023-04-02T07:32:01.570Z,1.36
2023-04-02T07:33:18.536Z,1.94
2023-04-02T07:34:35.530Z,1.93
2023-04-02T07:35:52.527Z,1.52
2023-04-02T07:37:09.572Z,2.01
2023-04-02T07:38:26.525Z,1.55
2023-04-02T07:39:43.538Z,2.19
2023-04-02T07:41:00.514Z,1.49
2023-04-02T07:42:17.553Z,1.43
2023-04-02T07:43:34.513Z,1.47
2023-04-02T07:44:51.521Z,1.18
2023-04-02T07:46:08.699Z,2.41
2023-04-02T07:47:25.641Z,2.59
2023-04-02T07:48:42.574Z,2.51
2023-04-02T07:49:59.606Z,2.24
2023-04-02T07:51:16.556Z,1.66
2023-04-02T07:52:33.583Z,2.07
2023-04-02T07:53:50.633Z,2.81
2023-04-02T07:55:07.602Z,2.38
2023-04-02T07:56:24.543Z,2.55
2023-04-02T07:57:42.012Z,3.84
2023-04-02T07:58:58.811Z,3
2023-04-02T08:00:16.604Z,2.77
2023-04-02T08:01:33.576Z,1.65
2023-04-02T08:02:50.635Z,1.54
2023-04-02T08:04:07.636Z,2.62
2023-04-02T08:05:24.595Z,2.78
2023-04-02T08:06:41.660Z,2.26
2023-04-02T08:07:58.609Z,2.36
2023-04-02T08:09:15.571Z,1.65
2023-04-02T08:10:32.610Z,2.06
2023-04-02T08:11:50.470Z,1.8
2023-04-02T08:13:07.677Z,2.13
2023-04-02T08:14:24.638Z,2.46
2023-04-02T08:15:41.621Z,2.23
2023-04-02T08:16:58.781Z,1.9
2023-04-02T08:18:15.723Z,1.84
2023-04-02T08:19:36.879Z,2.32
2023-04-02T08:20:49.584Z,1.95
2023-04-02T08:22:06.617Z,1.52
2023-04-02T08:23:23.624Z,1.91
2023-04-02T08:24:40.629Z,3.37
2023-04-02T08:25:57.611Z,1.74
2023-04-02T08:27:14.607Z,1.35
2023-04-02T08:28:31.760Z,1.27
2023-04-02T08:29:48.941Z,1.36
2023-04-02T08:31:05.646Z,1.88
2023-04-02T08:32:22.621Z,1.82
2023-04-02T08:33:39.689Z,1.8
2023-04-02T08:34:56.656Z,1.86
2023-04-02T08:36:13.632Z,1.53
2023-04-02T08:37:30.641Z,2.1
2023-04-02T08:38:47.628Z,1.4
2023-04-02T08:40:04.673Z,1.92
2023-04-02T08:41:21.615Z,2.17
2023-04-02T08:42:38.620Z,1.93
2023-04-02T08:43:55.681Z,1.81
2023-04-02T08:45:23.997Z,1.95
2023-04-02T08:46:29.616Z,1.95
2023-04-02T08:47:46.644Z,1.29
2023-04-02T08:49:04.165Z,1.94
2023-04-02T08:50:20.657Z,1.67
2023-04-02T08:51:37.663Z,1.63
2023-04-02T08:52:54.635Z,3.36
2023-04-02T08:54:11.690Z,2.03
2023-04-02T08:55:28.659Z,0.93
2023-04-02T08:56:45.654Z,1.73
2023-04-02T08:58:02.742Z,1.75
2023-04-02T08:59:19.677Z,2.78
2023-04-02T09:00:37.917Z,2.83
2023-04-02T09:01:53.744Z,1.56
2023-04-02T09:03:10.736Z,1.5
2023-04-02T09:04:27.696Z,1.55
2023-04-02T09:05:44.700Z,2.43
2023-04-02T09:07:01.697Z,2.76
2023-04-02T09:08:18.702Z,1.23
2023-04-02T09:09:35.737Z,1.79
2023-04-02T09:10:52.632Z,1.4
2023-04-02T09:12:09.663Z,1.81
2023-04-02T09:13:26.735Z,1.27
2023-04-02T09:14:43.690Z,1.93
2023-04-02T09:16:00.697Z,1.21
2023-04-02T09:17:17.640Z,1.34
2023-04-02T09:18:34.711Z,1.31
2023-04-02T09:19:51.709Z,1.67
2023-04-02T09:21:08.745Z,2.24
2023-04-02T09:22:25.676Z,2.06
2023-04-02T09:23:42.676Z,2.02
2023-04-02T09:24:59.673Z,2.19
2023-04-02T09:26:16.719Z,1.4
2023-04-02T09:27:33.660Z,0.91
2023-04-02T09:28:50.669Z,0.77
2023-04-02T09:30:07.726Z,1.59
2023-04-02T09:31:24.711Z,1.68
2023-04-02T09:32:41.680Z,2.11
2023-04-02T09:33:58.807Z,1.3
2023-04-02T09:35:25.162Z,1.32
2023-04-02T09:36:32.740Z,2.27
2023-04-02T09:37:49.809Z,2.19
2023-04-02T09:39:06.749Z,2.43
2023-04-02T09:40:23.704Z,1.96
2023-04-02T09:41:40.702Z,2.06
2023-04-02T09:42:57.709Z,1.52
2023-04-02T09:44:14.850Z,1.34
2023-04-02T09:45:32.288Z,2.5
2023-04-02T09:46:48.754Z,2.24
2023-04-02T09:48:05.767Z,1.55
2023-04-02T09:49:36.905Z,1.32
2023-04-02T09:50:56.786Z,1.19
2023-04-02T09:52:18.790Z,1.25
2023-04-02T09:53:42.520Z,1.02
2023-04-02T09:54:59.070Z,0.64
2023-04-02T09:56:17.030Z,1.98
2023-04-02T09:57:33.814Z,1.33
2023-04-02T09:58:50.819Z,2.31
2023-04-02T10:00:10.193Z,1.02
2023-04-02T10:01:24.781Z,0.78
2023-04-02T10:02:41.739Z,1.21
2023-04-02T10:03:58.789Z,1.34
2023-04-02T10:05:20.935Z,0.69
2023-04-02T10:06:32.736Z,1.17
2023-04-02T10:07:49.816Z,1.33
2023-04-02T10:09:06.749Z,1.89
2023-04-02T10:10:25.208Z,1.01
2023-04-02T10:11:46.510Z,1.77
2023-04-02T10:12:57.839Z,1.18
2023-04-02T10:14:14.737Z,0.6
2023-04-02T10:15:31.724Z,1.27
2023-04-02T10:16:48.852Z,1.19
2023-04-02T10:18:05.818Z,1.97
2023-04-02T10:19:22.759Z,1.28
2023-04-02T10:20:48.853Z,1.45
2023-04-02T10:21:56.746Z,3
2023-04-02T10:23:13.804Z,2.19
2023-04-02T10:24:30.743Z,2.45
2023-04-02T10:25:48.368Z,3.07
2023-04-02T10:27:04.774Z,1.88
2023-04-02T10:28:21.763Z,3.11
2023-04-02T10:29:38.762Z,2.19
2023-04-02T10:30:55.812Z,2.49
2023-04-02T10:32:12.782Z,2.3
2023-04-02T10:33:29.800Z,1.02
2023-04-02T10:34:46.759Z,3.12
2023-04-02T10:36:04.168Z,2.02
2023-04-02T10:37:20.922Z,2.17
2023-04-02T10:38:37.855Z,1.71
2023-04-02T10:39:54.840Z,1.6
2023-04-02T10:41:11.864Z,1.89
2023-04-02T10:42:28.796Z,1.22
2023-04-02T10:43:45.778Z,1.92
2023-04-02T10:45:02.775Z,2.01
2023-04-02T10:46:20.053Z,1.3
2023-04-02T10:47:36.831Z,2
2023-04-02T10:48:53.806Z,0.97
2023-04-02T10:50:10.790Z,1.69
2023-04-02T10:51:27.877Z,1.26
2023-04-02T10:52:44.821Z,1.7
2023-04-02T10:54:02.009Z,2
2023-04-02T10:55:18.856Z,1.04
2023-04-02T10:56:44.354Z,2.94
2023-04-02T10:57:52.840Z,3.06
2023-04-02T10:59:09.815Z,2.56
2023-04-02T11:00:26.777Z,2.14
2023-04-02T11:01:43.923Z,2.7
2023-04-02T11:03:01.017Z,1.63
2023-04-02T11:04:17.864Z,2.04
2023-04-02T11:05:35.252Z,2.2
2023-04-02T11:06:53.051Z,1.7
2023-04-02T11:08:08.857Z,1.72
2023-04-02T11:09:25.838Z,2.74
2023-04-02T11:10:43.064Z,2.24
2023-04-02T11:11:59.823Z,1.46
2023-04-02T11:13:16.927Z,1.38
2023-04-02T11:14:33.849Z,1.35
2023-04-02T11:15:50.900Z,1.61
2023-04-02T11:17:07.816Z,1.27
2023-04-02T11:18:24.840Z,0.79
2023-04-02T11:19:41.839Z,1.28
2023-04-02T11:20:58.836Z,1.71
2023-04-02T11:22:15.807Z,1.58
2023-04-02T11:23:32.830Z,1.24
2023-04-02T11:24:49.894Z,1.36
2023-04-02T11:26:06.967Z,2.02
2023-04-02T11:27:23.832Z,0.92
2023-04-02T11:28:40.848Z,2
2023-04-02T11:29:57.826Z,1.01
2023-04-02T11:31:14.928Z,1.28
2023-04-02T11:32:31.925Z,0.75
2023-04-02T11:33:50.058Z,1.01
2023-04-02T11:35:07.346Z,1.46
2023-04-02T11:36:22.919Z,1.69
2023-04-02T11:37:39.897Z,1.06
2023-04-02T11:39:01.840Z,1.75
2023-04-02T11:40:14.042Z,1.48
2023-04-02T11:41:30.879Z,1.5
2023-04-02T11:42:47.841Z,1.33
2023-04-02T11:44:04.918Z,1.26
2023-04-02T11:45:21.979Z,0.94
2023-04-02T11:46:38.960Z,1.41
2023-04-02T11:47:58.171Z,1.29
2023-04-02T11:49:14.890Z,0.93
2023-04-02T11:50:31.883Z,1.43
2023-04-02T11:51:49.675Z,3.17
2023-04-02T11:53:05.883Z,1.84
2023-04-02T11:54:22.844Z,1.69
2023-04-02T11:55:40.067Z,1.45
2023-04-02T11:56:57.004Z,2.47
2023-04-02T11:58:13.944Z,0.7
2023-04-02T11:59:30.853Z,2.09
2023-04-02T12:00:47.884Z,1.9
2023-04-02T12:02:04.945Z,3.2
2023-04-02T12:03:22.018Z,1.62
2023-04-02T12:04:38.923Z,3.29
2023-04-02T12:05:55.904Z,2.8
2023-04-02T12:07:12.890Z,1.79
2023-04-02T12:08:29.960Z,1.44
2023-04-02T12:09:46.949Z,1.75
2023-04-02T12:11:03.934Z,2.34
2023-04-02T12:12:20.951Z,2.68
2023-04-02T12:13:37.950Z,3.42
2023-04-02T12:14:54.918Z,2.28
2023-04-02T12:16:11.879Z,1.83
2023-04-02T12:17:28.947Z,1.91
2023-04-02T12:18:45.882Z,1.05
2023-04-02T12:20:05.205Z,1.01
2023-04-02T12:21:19.913Z,1.61
2023-04-02T12:22:36.987Z,1.92
2023-04-02T12:23:53.915Z,2.1
2023-04-02T12:25:10.923Z,1.73
2023-04-02T12:26:27.930Z,2.06
2023-04-02T12:27:44.967Z,1.48
2023-04-02T12:29:01.924Z,1.77
2023-04-02T12:30:18.987Z,2.05
2023-04-02T12:31:35.980Z,1.57
2023-04-02T12:32:53.244Z,2.3
2023-04-02T12:34:09.943Z,1.67
2023-04-02T12:35:26.970Z,3.08
2023-04-02T12:36:43.923Z,1.84
2023-04-02T12:38:01.080Z,2.38
2023-04-02T12:39:18.027Z,1.56
2023-04-02T12:40:35.218Z,0.59
2023-04-02T12:41:52.024Z,0.89
2023-04-02T12:43:09.381Z,1.96
2023-04-02T12:44:25.973Z,1.6
2023-04-02T12:45:42.999Z,1.84
2023-04-02T12:46:59.962Z,3.73
2023-04-02T12:48:17.007Z,2.24
2023-04-02T12:49:34.009Z,2.32
2023-04-02T12:50:51.001Z,1.77
2023-04-02T12:52:07.994Z,3.33
2023-04-02T12:53:24.980Z,2.57
2023-04-02T12:54:41.925Z,3.54
2023-04-02T12:55:58.940Z,2.85
2023-04-02T12:57:16.065Z,1.52
2023-04-02T12:58:32.969Z,2.7
2023-04-02T12:59:50.008Z,1.89
2023-04-02T13:01:07.126Z,2.55
2023-04-02T13:02:24.032Z,3.16
2023-04-02T13:03:41.137Z,2.01
2023-04-02T13:04:58.063Z,1.22
2023-04-02T13:06:15.006Z,1.38
2023-04-02T13:07:32.100Z,1.48
2023-04-02T13:08:48.994Z,2.77
2023-04-02T13:10:05.992Z,1.68
2023-04-02T13:11:23.025Z,1.39
2023-04-02T13:12:40.174Z,1.6
2023-04-02T13:13:57.062Z,2.68
2023-04-02T13:15:14.011Z,3.09
2023-04-02T13:16:31.040Z,1.95
2023-04-02T13:17:48.068Z,2.26
2023-04-02T13:19:05.073Z,1.31
2023-04-02T13:20:22.031Z,3.71
2023-04-02T13:21:39.281Z,4.18
2023-04-02T13:22:56.003Z,1.79
2023-04-02T13:24:12.976Z,2.06
2023-04-02T13:25:30.035Z,2.07
2023-04-02T13:26:47.006Z,0.91
2023-04-02T13:28:04.181Z,1.76
2023-04-02T13:29:20.996Z,0.7
2023-04-02T13:30:38.145Z,0.87
2023-04-02T13:31:55.135Z,1.19
2023-04-02T13:33:12.037Z,1.79
2023-04-02T13:34:29.048Z,0.88
2023-04-02T13:35:46.164Z,1.72
2023-04-02T13:37:03.091Z,0.78
2023-04-02T13:38:20.185Z,2.55
2023-04-02T13:39:37.049Z,2.33
2023-04-02T13:40:54.012Z,2.03
2023-04-02T13:42:10.989Z,2
2023-04-02T13:43:28.058Z,2.51
2023-04-02T13:44:45.094Z,1.75
2023-04-02T13:46:02.099Z,2.06
2023-04-02T13:47:19.309Z,1.79
2023-04-02T13:48:36.002Z,1.39
2023-04-02T13:49:53.024Z,1.6
2023-04-02T13:51:10.050Z,2.7
2023-04-02T13:52:27.186Z,3.03
2023-04-02T13:53:44.012Z,2.35
2023-04-02T13:55:01.049Z,1.46
2023-04-02T13:56:18.099Z,2.01
2023-04-02T13:57:35.111Z,2.62
2023-04-02T13:58:52.100Z,2.87
2023-04-02T14:00:09.090Z,1.89
2023-04-02T14:01:26.211Z,3.42
2023-04-02T14:02:43.127Z,3.61
2023-04-02T14:04:00.057Z,2.06
2023-04-02T14:05:17.106Z,2.45
2023-04-02T14:06:34.063Z,2.64
2023-04-02T14:07:51.082Z,1.85
2023-04-02T14:09:08.096Z,1.2
2023-04-02T14:10:25.722Z,2.47
2023-04-02T14:11:43.700Z,1.87
2023-04-02T14:13:00.789Z,1.2
2023-04-02T14:14:19.147Z,1.63
2023-04-02T14:15:35.154Z,2.52
2023-04-02T14:16:52.056Z,2.69
2023-04-02T14:18:09.152Z,3.11
2023-04-02T14:19:29.127Z,2.82
2023-04-02T14:20:49.185Z,1.02
2023-04-02T14:22:05.049Z,1.09
2023-04-02T14:23:22.089Z,2.59
2023-04-02T14:24:39.173Z,2.17
2023-04-02T14:25:56.076Z,3.38
2023-04-02T14:27:13.049Z,1.39
2023-04-02T14:28:30.089Z,1.75
2023-04-02T14:29:47.114Z,1.62
2023-04-02T14:31:04.131Z,2.74
2023-04-02T14:32:21.099Z,1.43
2023-04-02T14:33:38.271Z,2.3
2023-04-02T14:34:55.378Z,2.67
2023-04-02T14:36:12.055Z,1.32
2023-04-02T14:37:29.158Z,1.48
2023-04-02T14:38:46.069Z,3.04
2023-04-02T14:40:03.159Z,4.18
2023-04-02T14:41:20.090Z,2.75
2023-04-02T14:42:37.103Z,2.53
2023-04-02T14:43:54.103Z,2.74
2023-04-02T14:45:11.166Z,1.61
2023-04-02T14:46:28.160Z,3.16
2023-04-02T14:47:45.107Z,2.09
2023-04-02T14:49:02.105Z,2.64
2023-04-02T14:50:19.095Z,4.76
2023-04-02T14:51:36.106Z,3.13
2023-04-02T14:52:53.081Z,3.62
2023-04-02T14:54:10.178Z,2.7
2023-04-02T14:55:27.079Z,1.33
2023-04-02T14:56:44.107Z,1.85
2023-04-02T14:58:01.128Z,1.17
2023-04-02T14:59:18.218Z,1.57
2023-04-02T15:00:35.394Z,1.59
2023-04-02T15:01:52.203Z,1.99
2023-04-02T15:03:09.230Z,2.5
2023-04-02T15:04:26.384Z,1.93
2023-04-02T15:05:43.182Z,1.75
2023-04-02T15:07:00.147Z,2.1
2023-04-02T15:08:17.102Z,3.64
2023-04-02T15:09:34.891Z,2.3
2023-04-02T15:10:52.128Z,3.16
2023-04-02T15:12:09.144Z,2.39
2023-04-02T15:13:26.127Z,3.19
2023-04-02T15:14:43.190Z,1.89
2023-04-02T15:16:00.207Z,1.47
2023-04-02T15:17:17.151Z,3.89
2023-04-02T15:18:34.095Z,1.37
2023-04-02T15:19:51.238Z,1.96
2023-04-02T15:21:08.143Z,1.2
2023-04-02T15:22:25.137Z,1.24
2023-04-02T15:23:42.139Z,1.66
2023-04-02T15:24:59.123Z,1.29
2023-04-02T15:26:16.240Z,1.74
2023-04-02T15:27:33.222Z,1.33
2023-04-02T15:28:50.145Z,1.61
2023-04-02T15:30:07.225Z,1.97
2023-04-02T15:31:24.216Z,1.87
2023-04-02T15:32:41.197Z,1.77
2023-04-02T15:33:58.177Z,1.15
2023-04-02T15:35:15.156Z,1.39
2023-04-02T15:36:32.145Z,1.69
2023-04-02T15:37:49.231Z,1.61
2023-04-02T15:39:06.154Z,1.01
2023-04-02T15:40:23.209Z,1.35
2023-04-02T15:41:40.214Z,2.51
2023-04-02T15:42:57.228Z,1.67
2023-04-02T15:44:14.150Z,1.62
2023-04-02T15:45:31.175Z,1.79
2023-04-02T15:46:48.231Z,1.05
2023-04-02T15:48:05.225Z,1.61
2023-04-02T15:49:22.318Z,1.37
2023-04-02T15:50:40.449Z,1.75
2023-04-02T15:51:56.248Z,1.63
2023-04-02T15:53:13.259Z,1.76
2023-04-02T15:54:30.337Z,1.35
2023-04-02T15:55:47.275Z,2.16
2023-04-02T15:57:04.965Z,1.14
2023-04-02T15:58:22.609Z,1.78
2023-04-02T15:59:39.269Z,2.19
2023-04-02T16:00:56.197Z,2.6
2023-04-02T16:02:13.326Z,0.85
2023-04-02T16:03:30.238Z,2.67
2023-04-02T16:04:47.223Z,3.12
2023-04-02T16:06:04.193Z,2.83
2023-04-02T16:07:21.229Z,0.95
2023-04-02T16:08:38.279Z,1.55
2023-04-02T16:09:55.344Z,0.8
2023-04-02T16:11:12.209Z,2
2023-04-02T16:12:29.237Z,3.78
2023-04-02T16:13:46.246Z,3.7
2023-04-02T16:15:03.255Z,3.49
2023-04-02T16:16:20.270Z,2.06
2023-04-02T16:17:37.316Z,1.46
2023-04-02T16:18:54.248Z,2.63
2023-04-02T16:20:11.281Z,2.71
2023-04-02T16:21:28.221Z,2.65
2023-04-02T16:22:57.633Z,2.12
2023-04-02T16:24:02.286Z,1.16
2023-04-02T16:25:19.350Z,1.11
2023-04-02T16:26:36.208Z,1.69
2023-04-02T16:27:53.266Z,2.22
2023-04-02T16:29:10.268Z,1.58
2023-04-02T16:30:27.292Z,1.96
2023-04-02T16:31:44.227Z,2.14
2023-04-02T16:33:01.367Z,1.4
2023-04-02T16:34:18.213Z,2.16
2023-04-02T16:35:42.926Z,2.09
2023-04-02T16:36:52.235Z,2.38
2023-04-02T16:38:09.244Z,2.12
2023-04-02T16:39:26.253Z,1.39
2023-04-02T16:40:43.275Z,1.01
2023-04-02T16:42:00.235Z,1.97
2023-04-02T16:43:17.321Z,0.49
2023-04-02T16:44:34.229Z,0.6
2023-04-02T16:45:51.290Z,1.17
2023-04-02T16:47:08.334Z,1.11
2023-04-02T16:48:25.292Z,1.51
2023-04-02T16:49:42.236Z,1.69
2023-04-02T16:50:59.262Z,1.13
2023-04-02T16:52:16.365Z,0.97
2023-04-02T16:53:33.264Z,0.9
2023-04-02T16:54:50.272Z,0.94
2023-04-02T16:56:07.286Z,1.14
2023-04-02T16:57:24.305Z,1.12
2023-04-02T16:58:41.264Z,1.8
2023-04-02T16:59:58.243Z,0.68
2023-04-02T17:01:15.267Z,0.71
2023-04-02T17:02:32.360Z,1
2023-04-02T17:03:49.463Z,0.95
2023-04-02T17:05:06.265Z,1
2023-04-02T17:06:23.523Z,1.34
2023-04-02T17:07:40.476Z,1.48
2023-04-02T17:08:57.319Z,1.72
2023-04-02T17:10:14.275Z,1.65